JST517 YSSY-YMML
Flight info
| Callsign | JST517 |
|---|---|
| Flight time | 1h 11m |
| Altitude | 36000 |
| Route | SY3/25 TESAT H65 LEECE Q29 ML DCT |
| Aircraft | A321/M-SDE3FGHIRWY/LB1 |
Departure
| Time | 2026-05-08 04:09 |
|---|---|
| Airport | Sydney Kingsford Smith International Airport (YSSY) |
Arrival
| Time | 2026-05-08 05:20 |
|---|---|
| Airport | Melbourne Airport (YMML) |
| Time | Latitude | Longitude | Altitude | Speed | Heading |
|---|---|---|---|---|---|
| 2026-05-08 03:38 | -33.93525 | 151.17770 | 30 ft | 0 kts | 279° |
| 2026-05-08 03:56 | -33.93525 | 151.17771 | 30 ft | 2 kts | 279° |
| 2026-05-08 03:56 | -33.93529 | 151.17801 | 30 ft | 4 kts | 278° |
| 2026-05-08 03:57 | -33.93529 | 151.17830 | 30 ft | 4 kts | 238° |
| 2026-05-08 03:57 | -33.93523 | 151.17839 | 30 ft | 0 kts | 190° |
| 2026-05-08 03:57 | -33.93547 | 151.17834 | 30 ft | 4 kts | 190° |
| 2026-05-08 03:57 | -33.93573 | 151.17828 | 30 ft | 4 kts | 190° |
| 2026-05-08 03:58 | -33.93600 | 151.17823 | 30 ft | 4 kts | 190° |
| 2026-05-08 03:58 | -33.93609 | 151.17821 | 30 ft | 0 kts | 190° |
| 2026-05-08 04:01 | -33.93610 | 151.17821 | 30 ft | 1 kts | 190° |
| 2026-05-08 04:01 | -33.93627 | 151.17817 | 30 ft | 5 kts | 191° |
| 2026-05-08 04:01 | -33.93675 | 151.17805 | 30 ft | 8 kts | 192° |
| 2026-05-08 04:01 | -33.93722 | 151.17791 | 30 ft | 0 kts | 195° |
| 2026-05-08 04:02 | -33.93724 | 151.17790 | 30 ft | 1 kts | 195° |
| 2026-05-08 04:02 | -33.93736 | 151.17786 | 30 ft | 3 kts | 195° |
| 2026-05-08 04:02 | -33.93749 | 151.17782 | 30 ft | 2 kts | 194° |
| 2026-05-08 04:02 | -33.93769 | 151.17776 | 30 ft | 4 kts | 194° |
| 2026-05-08 04:03 | -33.93802 | 151.17765 | 30 ft | 7 kts | 194° |
| 2026-05-08 04:03 | -33.93815 | 151.17881 | 30 ft | 13 kts | 73° |
| 2026-05-08 04:03 | -33.93787 | 151.18003 | 30 ft | 17 kts | 73° |
| 2026-05-08 04:04 | -33.93756 | 151.18129 | 30 ft | 15 kts | 74° |
| 2026-05-08 04:04 | -33.93729 | 151.18247 | 30 ft | 15 kts | 74° |
| 2026-05-08 04:04 | -33.93700 | 151.18369 | 30 ft | 16 kts | 74° |
| 2026-05-08 04:04 | -33.93669 | 151.18500 | 30 ft | 17 kts | 74° |
| 2026-05-08 04:05 | -33.93637 | 151.18633 | 30 ft | 16 kts | 74° |
| 2026-05-08 04:05 | -33.93612 | 151.18737 | 30 ft | 12 kts | 74° |
| 2026-05-08 04:05 | -33.93592 | 151.18834 | 30 ft | 10 kts | 84° |
| 2026-05-08 04:05 | -33.93614 | 151.18912 | 29 ft | 11 kts | 130° |
| 2026-05-08 04:06 | -33.93657 | 151.18944 | 28 ft | 0 kts | 161° |
| 2026-05-08 04:06 | -33.93658 | 151.18944 | 28 ft | 0 kts | 161° |
| 2026-05-08 04:07 | -33.93660 | 151.18945 | 28 ft | 2 kts | 161° |
| 2026-05-08 04:07 | -33.93686 | 151.18954 | 26 ft | 6 kts | 166° |
| 2026-05-08 04:07 | -33.93743 | 151.18952 | 25 ft | 9 kts | 198° |
| 2026-05-08 04:07 | -33.93774 | 151.18911 | 26 ft | 0 kts | 251° |
| 2026-05-08 04:08 | -33.93779 | 151.18887 | 25 ft | 19 kts | 255° |
| 2026-05-08 04:08 | -33.93882 | 151.18442 | 30 ft | 89 kts | 254° |
| 2026-05-08 04:08 | -33.94105 | 151.17499 | 28 ft | 143 kts | 254° |
| 2026-05-08 04:08 | -33.94410 | 151.16252 | 400 ft | 159 kts | 251° |
| 2026-05-08 04:09 | -33.94919 | 151.15093 | 1130 ft | 155 kts | 237° |
| 2026-05-08 04:09 | -33.95293 | 151.13875 | 1807 ft | 159 kts | 253° |
| 2026-05-08 04:09 | -33.95606 | 151.12516 | 2054 ft | 178 kts | 252° |
| 2026-05-08 04:09 | -33.95965 | 151.11008 | 2215 ft | 195 kts | 252° |
| 2026-05-08 04:10 | -33.96399 | 151.09389 | 2369 ft | 215 kts | 243° |
| 2026-05-08 04:10 | -33.97452 | 151.08038 | 2659 ft | 237 kts | 210° |
| 2026-05-08 04:10 | -33.99016 | 151.07322 | 3451 ft | 241 kts | 201° |
| 2026-05-08 04:10 | -34.00578 | 151.06598 | 4371 ft | 240 kts | 203° |
| 2026-05-08 04:11 | -34.02119 | 151.05821 | 5210 ft | 241 kts | 203° |
| 2026-05-08 04:11 | -34.03666 | 151.05029 | 6026 ft | 242 kts | 203° |
| 2026-05-08 04:11 | -34.05222 | 151.04235 | 6793 ft | 244 kts | 203° |
| 2026-05-08 04:11 | -34.06806 | 151.03434 | 7426 ft | 251 kts | 203° |
| 2026-05-08 04:12 | -34.08439 | 151.02619 | 8122 ft | 255 kts | 203° |
| 2026-05-08 04:12 | -34.10092 | 151.01799 | 8860 ft | 258 kts | 203° |
| 2026-05-08 04:12 | -34.11763 | 151.00974 | 9586 ft | 262 kts | 204° |
| 2026-05-08 04:12 | -34.13462 | 151.00134 | 10224 ft | 268 kts | 204° |
| 2026-05-08 04:13 | -34.15261 | 150.99242 | 10392 ft | 291 kts | 204° |
| 2026-05-08 04:13 | -34.17201 | 150.98280 | 10613 ft | 309 kts | 204° |
| 2026-05-08 04:13 | -34.19211 | 150.97282 | 11183 ft | 314 kts | 204° |
| 2026-05-08 04:13 | -34.21240 | 150.96276 | 11857 ft | 316 kts | 204° |
| 2026-05-08 04:14 | -34.23284 | 150.95263 | 12557 ft | 318 kts | 204° |
| 2026-05-08 04:14 | -34.25363 | 150.94236 | 13261 ft | 319 kts | 204° |
| 2026-05-08 04:14 | -34.27391 | 150.93234 | 13954 ft | 320 kts | 205° |
| 2026-05-08 04:14 | -34.29459 | 150.92209 | 14570 ft | 322 kts | 205° |
| 2026-05-08 04:15 | -34.31542 | 150.91174 | 15174 ft | 324 kts | 205° |
| 2026-05-08 04:15 | -34.33636 | 150.90132 | 15779 ft | 326 kts | 205° |
| 2026-05-08 04:15 | -34.35739 | 150.89088 | 16402 ft | 327 kts | 205° |
| 2026-05-08 04:15 | -34.37848 | 150.88041 | 17033 ft | 329 kts | 205° |
| 2026-05-08 04:16 | -34.39966 | 150.86988 | 17674 ft | 329 kts | 205° |
| 2026-05-08 04:16 | -34.42094 | 150.85926 | 18289 ft | 332 kts | 205° |
| 2026-05-08 04:16 | -34.44230 | 150.84861 | 18817 ft | 334 kts | 205° |
| 2026-05-08 04:16 | -34.46387 | 150.83789 | 19327 ft | 336 kts | 205° |
| 2026-05-08 04:17 | -34.48556 | 150.82710 | 19852 ft | 338 kts | 205° |
| 2026-05-08 04:17 | -34.50741 | 150.81621 | 20366 ft | 340 kts | 205° |
| 2026-05-08 04:17 | -34.52939 | 150.80526 | 20892 ft | 342 kts | 205° |
| 2026-05-08 04:17 | -34.55033 | 150.79160 | 21405 ft | 343 kts | 216° |
| 2026-05-08 04:18 | -34.56836 | 150.77270 | 21904 ft | 345 kts | 227° |
| 2026-05-08 04:18 | -34.58310 | 150.74961 | 22373 ft | 348 kts | 232° |
| 2026-05-08 04:18 | -34.59737 | 150.72565 | 22753 ft | 353 kts | 232° |
| 2026-05-08 04:18 | -34.61197 | 150.70135 | 23102 ft | 358 kts | 232° |
| 2026-05-08 04:19 | -34.62678 | 150.67685 | 23546 ft | 361 kts | 232° |
| 2026-05-08 04:19 | -34.64169 | 150.65218 | 23952 ft | 363 kts | 232° |
| 2026-05-08 04:19 | -34.65661 | 150.62738 | 24350 ft | 365 kts | 232° |
| 2026-05-08 04:19 | -34.67164 | 150.60238 | 24753 ft | 367 kts | 232° |
| 2026-05-08 04:20 | -34.68653 | 150.57764 | 25133 ft | 368 kts | 232° |
| 2026-05-08 04:20 | -34.70168 | 150.55244 | 25531 ft | 370 kts | 232° |
| 2026-05-08 04:20 | -34.71687 | 150.52711 | 25916 ft | 371 kts | 232° |
| 2026-05-08 04:20 | -34.73207 | 150.50172 | 26328 ft | 372 kts | 232° |
| 2026-05-08 04:21 | -34.74737 | 150.47620 | 26712 ft | 374 kts | 232° |
| 2026-05-08 04:21 | -34.76272 | 150.45062 | 27052 ft | 376 kts | 232° |
| 2026-05-08 04:21 | -34.77824 | 150.42475 | 27335 ft | 380 kts | 232° |
| 2026-05-08 04:21 | -34.79385 | 150.39871 | 27685 ft | 382 kts | 232° |
| 2026-05-08 04:22 | -34.80956 | 150.37248 | 28056 ft | 384 kts | 232° |
| 2026-05-08 04:22 | -34.82524 | 150.34621 | 28464 ft | 384 kts | 232° |
| 2026-05-08 04:22 | -34.84095 | 150.31982 | 28849 ft | 385 kts | 232° |
| 2026-05-08 04:22 | -34.85671 | 150.29334 | 29209 ft | 386 kts | 232° |
| 2026-05-08 04:23 | -34.87250 | 150.26678 | 29548 ft | 387 kts | 232° |
| 2026-05-08 04:23 | -34.88831 | 150.24019 | 29877 ft | 389 kts | 232° |
| 2026-05-08 04:23 | -34.90401 | 150.21383 | 30185 ft | 391 kts | 232° |
| 2026-05-08 04:23 | -34.91998 | 150.18699 | 30458 ft | 392 kts | 232° |
| 2026-05-08 04:24 | -34.93605 | 150.15997 | 30686 ft | 395 kts | 232° |
| 2026-05-08 04:24 | -34.95248 | 150.13232 | 30859 ft | 399 kts | 232° |
| 2026-05-08 04:24 | -34.96855 | 150.10524 | 31194 ft | 399 kts | 232° |
| 2026-05-08 04:24 | -34.98479 | 150.07784 | 31578 ft | 398 kts | 232° |
| 2026-05-08 04:25 | -35.00099 | 150.05049 | 31955 ft | 397 kts | 232° |
| 2026-05-08 04:25 | -35.01719 | 150.02311 | 32321 ft | 397 kts | 232° |
| 2026-05-08 04:25 | -35.03331 | 149.99579 | 32654 ft | 396 kts | 233° |
| 2026-05-08 04:25 | -35.04940 | 149.96848 | 32995 ft | 396 kts | 233° |
| 2026-05-08 04:26 | -35.06549 | 149.94119 | 33334 ft | 396 kts | 233° |
| 2026-05-08 04:26 | -35.08158 | 149.91393 | 33670 ft | 395 kts | 233° |
| 2026-05-08 04:26 | -35.09769 | 149.88665 | 33995 ft | 395 kts | 233° |
| 2026-05-08 04:26 | -35.10834 | 149.86863 | 34144 ft | 395 kts | 234° |
| 2026-05-08 04:27 | -35.12986 | 149.83214 | 34515 ft | 395 kts | 233° |
| 2026-05-08 04:27 | -35.14047 | 149.81409 | 34723 ft | 394 kts | 233° |
| 2026-05-08 04:27 | -35.16160 | 149.77805 | 35102 ft | 393 kts | 233° |
| 2026-05-08 04:27 | -35.17754 | 149.75088 | 35372 ft | 393 kts | 233° |
| 2026-05-08 04:28 | -35.19347 | 149.72374 | 35634 ft | 393 kts | 233° |
| 2026-05-08 04:28 | -35.20422 | 149.70544 | 35814 ft | 392 kts | 233° |
| 2026-05-08 04:28 | -35.22013 | 149.67834 | 36042 ft | 393 kts | 234° |
| 2026-05-08 04:28 | -35.23606 | 149.65118 | 36114 ft | 392 kts | 234° |
| 2026-05-08 04:29 | -35.26755 | 149.59735 | 36096 ft | 391 kts | 234° |
| 2026-05-08 04:29 | -35.29914 | 149.54316 | 36111 ft | 391 kts | 234° |
| 2026-05-08 04:30 | -35.33080 | 149.48883 | 36110 ft | 391 kts | 234° |
| 2026-05-08 04:30 | -35.36240 | 149.43453 | 36112 ft | 391 kts | 234° |
| 2026-05-08 04:31 | -35.39402 | 149.38013 | 36116 ft | 392 kts | 234° |
| 2026-05-08 04:31 | -35.42564 | 149.32559 | 36135 ft | 392 kts | 234° |
| 2026-05-08 04:32 | -35.45726 | 149.27096 | 36133 ft | 393 kts | 234° |
| 2026-05-08 04:32 | -35.48887 | 149.21630 | 36131 ft | 393 kts | 234° |
| 2026-05-08 04:33 | -35.52034 | 149.16199 | 36134 ft | 393 kts | 234° |
| 2026-05-08 04:33 | -35.55195 | 149.10718 | 36130 ft | 393 kts | 234° |
| 2026-05-08 04:34 | -35.58352 | 149.05227 | 36137 ft | 393 kts | 234° |
| 2026-05-08 04:34 | -35.61508 | 148.99732 | 36111 ft | 394 kts | 233° |
| 2026-05-08 04:35 | -35.64676 | 148.94220 | 36108 ft | 395 kts | 233° |
| 2026-05-08 04:35 | -35.67843 | 148.88696 | 36126 ft | 396 kts | 234° |
| 2026-05-08 04:36 | -35.71009 | 148.83153 | 36133 ft | 396 kts | 233° |
| 2026-05-08 04:36 | -35.74177 | 148.77606 | 36143 ft | 396 kts | 233° |
| 2026-05-08 04:37 | -35.77327 | 148.72075 | 36109 ft | 397 kts | 233° |
| 2026-05-08 04:37 | -35.80507 | 148.66497 | 36129 ft | 398 kts | 233° |
| 2026-05-08 04:38 | -35.83694 | 148.60904 | 36137 ft | 399 kts | 234° |
| 2026-05-08 04:38 | -35.86879 | 148.55287 | 36163 ft | 400 kts | 233° |
| 2026-05-08 04:39 | -35.90068 | 148.49641 | 36154 ft | 401 kts | 233° |
| 2026-05-08 04:39 | -35.93262 | 148.43969 | 36163 ft | 402 kts | 233° |
| 2026-05-08 04:40 | -35.96431 | 148.38333 | 36172 ft | 402 kts | 234° |
| 2026-05-08 04:40 | -35.99621 | 148.32660 | 36196 ft | 402 kts | 233° |
| 2026-05-08 04:41 | -36.02811 | 148.26972 | 36190 ft | 403 kts | 233° |
| 2026-05-08 04:41 | -36.06005 | 148.21265 | 36198 ft | 404 kts | 233° |
| 2026-05-08 04:42 | -36.09211 | 148.15534 | 36186 ft | 405 kts | 233° |
| 2026-05-08 04:42 | -36.12415 | 148.09792 | 36203 ft | 405 kts | 233° |
| 2026-05-08 04:43 | -36.15620 | 148.04049 | 36212 ft | 406 kts | 233° |
| 2026-05-08 04:43 | -36.18811 | 147.98337 | 36217 ft | 406 kts | 233° |
| 2026-05-08 04:44 | -36.22026 | 147.92577 | 36202 ft | 406 kts | 233° |
| 2026-05-08 04:44 | -36.25233 | 147.86819 | 36208 ft | 406 kts | 234° |
| 2026-05-08 04:45 | -36.28436 | 147.81050 | 36200 ft | 406 kts | 233° |
| 2026-05-08 04:45 | -36.31647 | 147.75257 | 36199 ft | 407 kts | 233° |
| 2026-05-08 04:46 | -36.34852 | 147.69452 | 36205 ft | 408 kts | 233° |
| 2026-05-08 04:46 | -36.38044 | 147.63674 | 36184 ft | 409 kts | 233° |
| 2026-05-08 04:47 | -36.41259 | 147.57835 | 36199 ft | 410 kts | 233° |
| 2026-05-08 04:47 | -36.44481 | 147.51970 | 36200 ft | 411 kts | 233° |
| 2026-05-08 04:48 | -36.47711 | 147.46088 | 36205 ft | 412 kts | 233° |
| 2026-05-08 04:48 | -36.50941 | 147.40194 | 36213 ft | 412 kts | 233° |
| 2026-05-08 04:49 | -36.54168 | 147.34296 | 36184 ft | 413 kts | 233° |
| 2026-05-08 04:49 | -36.57402 | 147.28394 | 36194 ft | 413 kts | 233° |
| 2026-05-08 04:50 | -36.60615 | 147.22495 | 36195 ft | 414 kts | 233° |
| 2026-05-08 04:50 | -36.63836 | 147.16561 | 36191 ft | 414 kts | 233° |
| 2026-05-08 04:51 | -36.67060 | 147.10627 | 36198 ft | 414 kts | 233° |
| 2026-05-08 04:51 | -36.70282 | 147.04680 | 36201 ft | 414 kts | 233° |
| 2026-05-08 04:52 | -36.73507 | 146.98713 | 35923 ft | 415 kts | 233° |
| 2026-05-08 04:52 | -36.75111 | 146.95741 | 35651 ft | 413 kts | 233° |
| 2026-05-08 04:52 | -36.76733 | 146.92737 | 34720 ft | 422 kts | 233° |
| 2026-05-08 04:53 | -36.78350 | 146.89739 | 34592 ft | 411 kts | 233° |
| 2026-05-08 04:53 | -36.79924 | 146.86817 | 34404 ft | 401 kts | 232° |
| 2026-05-08 04:53 | -36.81467 | 146.83953 | 34076 ft | 395 kts | 232° |
| 2026-05-08 04:53 | -36.82995 | 146.81120 | 33622 ft | 390 kts | 232° |
| 2026-05-08 04:54 | -36.84503 | 146.78317 | 33146 ft | 387 kts | 232° |
| 2026-05-08 04:54 | -36.85999 | 146.75528 | 32650 ft | 384 kts | 232° |
| 2026-05-08 04:54 | -36.87481 | 146.72765 | 32164 ft | 381 kts | 232° |
| 2026-05-08 04:54 | -36.88959 | 146.70017 | 31693 ft | 378 kts | 233° |
| 2026-05-08 04:55 | -36.90419 | 146.67297 | 31214 ft | 376 kts | 233° |
| 2026-05-08 04:55 | -36.91866 | 146.64592 | 30779 ft | 373 kts | 233° |
| 2026-05-08 04:55 | -36.93284 | 146.61937 | 30341 ft | 371 kts | 233° |
| 2026-05-08 04:55 | -36.94714 | 146.59257 | 29817 ft | 369 kts | 233° |
| 2026-05-08 04:56 | -36.96133 | 146.56598 | 29324 ft | 367 kts | 233° |
| 2026-05-08 04:56 | -36.97548 | 146.53947 | 28864 ft | 364 kts | 233° |
| 2026-05-08 04:56 | -36.98948 | 146.51320 | 28413 ft | 362 kts | 233° |
| 2026-05-08 04:56 | -37.00341 | 146.48709 | 27981 ft | 359 kts | 233° |
| 2026-05-08 04:57 | -37.01724 | 146.46116 | 27553 ft | 357 kts | 233° |
| 2026-05-08 04:57 | -37.03096 | 146.43538 | 27111 ft | 355 kts | 233° |
| 2026-05-08 04:57 | -37.04465 | 146.40966 | 26686 ft | 353 kts | 233° |
| 2026-05-08 04:57 | -37.05820 | 146.38417 | 26284 ft | 351 kts | 233° |
| 2026-05-08 04:58 | -37.07167 | 146.35873 | 25859 ft | 349 kts | 233° |
| 2026-05-08 04:58 | -37.08512 | 146.33336 | 25428 ft | 348 kts | 233° |
| 2026-05-08 04:58 | -37.09848 | 146.30821 | 25015 ft | 346 kts | 233° |
| 2026-05-08 04:58 | -37.11173 | 146.28323 | 24643 ft | 343 kts | 233° |
| 2026-05-08 04:59 | -37.12474 | 146.25867 | 24249 ft | 341 kts | 233° |
| 2026-05-08 04:59 | -37.13785 | 146.23389 | 23847 ft | 339 kts | 233° |
| 2026-05-08 04:59 | -37.15084 | 146.20929 | 23377 ft | 337 kts | 233° |
| 2026-05-08 04:59 | -37.16371 | 146.18483 | 22926 ft | 335 kts | 233° |
| 2026-05-08 05:00 | -37.17652 | 146.16049 | 22463 ft | 333 kts | 233° |
| 2026-05-08 05:00 | -37.18925 | 146.13629 | 22008 ft | 332 kts | 233° |
| 2026-05-08 05:00 | -37.20193 | 146.11219 | 21561 ft | 330 kts | 233° |
| 2026-05-08 05:00 | -37.21452 | 146.08826 | 21125 ft | 328 kts | 233° |
| 2026-05-08 05:01 | -37.22704 | 146.06450 | 20696 ft | 326 kts | 233° |
| 2026-05-08 05:01 | -37.23952 | 146.04084 | 20240 ft | 324 kts | 234° |
| 2026-05-08 05:01 | -37.25194 | 146.01729 | 19807 ft | 323 kts | 234° |
| 2026-05-08 05:01 | -37.26434 | 145.99377 | 19381 ft | 321 kts | 234° |
| 2026-05-08 05:02 | -37.27664 | 145.97040 | 18980 ft | 320 kts | 234° |
| 2026-05-08 05:02 | -37.28886 | 145.94712 | 18581 ft | 318 kts | 234° |
| 2026-05-08 05:02 | -37.30102 | 145.92390 | 18131 ft | 317 kts | 234° |
| 2026-05-08 05:02 | -37.31308 | 145.90085 | 17707 ft | 315 kts | 233° |
| 2026-05-08 05:03 | -37.32505 | 145.87799 | 17308 ft | 312 kts | 233° |
| 2026-05-08 05:03 | -37.33676 | 145.85560 | 16905 ft | 309 kts | 233° |
| 2026-05-08 05:03 | -37.34853 | 145.83313 | 16489 ft | 307 kts | 233° |
| 2026-05-08 05:03 | -37.36024 | 145.81081 | 16089 ft | 305 kts | 233° |
| 2026-05-08 05:04 | -37.37183 | 145.78871 | 15694 ft | 302 kts | 233° |
| 2026-05-08 05:04 | -37.38338 | 145.76668 | 15327 ft | 299 kts | 233° |
| 2026-05-08 05:04 | -37.39473 | 145.74499 | 14958 ft | 296 kts | 233° |
| 2026-05-08 05:04 | -37.40600 | 145.72344 | 14610 ft | 293 kts | 233° |
| 2026-05-08 05:05 | -37.41716 | 145.70211 | 14244 ft | 291 kts | 233° |
| 2026-05-08 05:05 | -37.42823 | 145.68094 | 13861 ft | 288 kts | 233° |
| 2026-05-08 05:05 | -37.43906 | 145.65970 | 13446 ft | 288 kts | 237° |
| 2026-05-08 05:05 | -37.44681 | 145.63640 | 13055 ft | 291 kts | 249° |
| 2026-05-08 05:06 | -37.45020 | 145.61118 | 12662 ft | 296 kts | 261° |
| 2026-05-08 05:06 | -37.45005 | 145.58555 | 12292 ft | 297 kts | 264° |
| 2026-05-08 05:06 | -37.44970 | 145.55933 | 11893 ft | 295 kts | 264° |
| 2026-05-08 05:06 | -37.44944 | 145.53388 | 11463 ft | 294 kts | 263° |
| 2026-05-08 05:07 | -37.44920 | 145.50826 | 11074 ft | 291 kts | 264° |
| 2026-05-08 05:07 | -37.44893 | 145.48287 | 10723 ft | 289 kts | 264° |
| 2026-05-08 05:07 | -37.44864 | 145.45767 | 10335 ft | 288 kts | 263° |
| 2026-05-08 05:07 | -37.44834 | 145.43254 | 9949 ft | 287 kts | 263° |
| 2026-05-08 05:08 | -37.44802 | 145.40784 | 9750 ft | 278 kts | 263° |
| 2026-05-08 05:08 | -37.44772 | 145.38366 | 9443 ft | 274 kts | 264° |
| 2026-05-08 05:08 | -37.44743 | 145.35975 | 9092 ft | 273 kts | 264° |
| 2026-05-08 05:08 | -37.44715 | 145.33604 | 8978 ft | 271 kts | 263° |
| 2026-05-08 05:09 | -37.44689 | 145.31226 | 8984 ft | 272 kts | 264° |
| 2026-05-08 05:09 | -37.44661 | 145.28840 | 8983 ft | 273 kts | 263° |
| 2026-05-08 05:09 | -37.44632 | 145.26449 | 8966 ft | 273 kts | 264° |
| 2026-05-08 05:09 | -37.44600 | 145.24055 | 8979 ft | 273 kts | 264° |
| 2026-05-08 05:10 | -37.44567 | 145.21667 | 8986 ft | 273 kts | 264° |
| 2026-05-08 05:10 | -37.44499 | 145.16890 | 8988 ft | 272 kts | 264° |
| 2026-05-08 05:10 | -37.44466 | 145.14532 | 8732 ft | 277 kts | 264° |
| 2026-05-08 05:11 | -37.44432 | 145.12063 | 8372 ft | 276 kts | 264° |
| 2026-05-08 05:11 | -37.44394 | 145.09689 | 8080 ft | 273 kts | 264° |
| 2026-05-08 05:11 | -37.44357 | 145.07311 | 7755 ft | 271 kts | 264° |
| 2026-05-08 05:11 | -37.44320 | 145.04977 | 7611 ft | 262 kts | 263° |
| 2026-05-08 05:12 | -37.44284 | 145.02716 | 7324 ft | 258 kts | 264° |
| 2026-05-08 05:12 | -37.44251 | 145.00508 | 7087 ft | 247 kts | 264° |
| 2026-05-08 05:12 | -37.44221 | 144.98354 | 6657 ft | 246 kts | 264° |
| 2026-05-08 05:12 | -37.44192 | 144.96206 | 6258 ft | 244 kts | 264° |
| 2026-05-08 05:13 | -37.44175 | 144.94804 | 6039 ft | 239 kts | 262° |
| 2026-05-08 05:13 | -37.44478 | 144.92102 | 5549 ft | 230 kts | 253° |
| 2026-05-08 05:13 | -37.44758 | 144.90132 | 5244 ft | 225 kts | 253° |
| 2026-05-08 05:13 | -37.44937 | 144.88861 | 5009 ft | 222 kts | 253° |
| 2026-05-08 05:14 | -37.45202 | 144.86968 | 4627 ft | 216 kts | 253° |
| 2026-05-08 05:14 | -37.45457 | 144.85150 | 4327 ft | 206 kts | 253° |
| 2026-05-08 05:14 | -37.45700 | 144.83418 | 4127 ft | 197 kts | 254° |
| 2026-05-08 05:14 | -37.45966 | 144.81770 | 3930 ft | 185 kts | 244° |
| 2026-05-08 05:15 | -37.46681 | 144.80573 | 3758 ft | 165 kts | 214° |
| 2026-05-08 05:15 | -37.47748 | 144.80140 | 3349 ft | 165 kts | 184° |
| 2026-05-08 05:15 | -37.48896 | 144.80353 | 3173 ft | 168 kts | 175° |
| 2026-05-08 05:15 | -37.50050 | 144.80585 | 3098 ft | 169 kts | 176° |
| 2026-05-08 05:16 | -37.51209 | 144.80814 | 3016 ft | 161 kts | 175° |
| 2026-05-08 05:16 | -37.52270 | 144.81026 | 3001 ft | 150 kts | 176° |
| 2026-05-08 05:16 | -37.53281 | 144.81229 | 2897 ft | 146 kts | 176° |
| 2026-05-08 05:16 | -37.54280 | 144.81426 | 2708 ft | 144 kts | 177° |
| 2026-05-08 05:17 | -37.55270 | 144.81615 | 2494 ft | 144 kts | 177° |
| 2026-05-08 05:17 | -37.56257 | 144.81801 | 2301 ft | 144 kts | 177° |
| 2026-05-08 05:17 | -37.57241 | 144.81985 | 2109 ft | 145 kts | 178° |
| 2026-05-08 05:17 | -37.58226 | 144.82169 | 1913 ft | 142 kts | 176° |
| 2026-05-08 05:18 | -37.59204 | 144.82351 | 1705 ft | 145 kts | 177° |
| 2026-05-08 05:18 | -37.60211 | 144.82539 | 1509 ft | 145 kts | 176° |
| 2026-05-08 05:18 | -37.61202 | 144.82725 | 1309 ft | 145 kts | 175° |
| 2026-05-08 05:18 | -37.62204 | 144.82911 | 1103 ft | 147 kts | 174° |
| 2026-05-08 05:19 | -37.63207 | 144.83097 | 893 ft | 147 kts | 173° |
| 2026-05-08 05:19 | -37.64253 | 144.83304 | 769 ft | 150 kts | 173° |
| 2026-05-08 05:19 | -37.65268 | 144.83487 | 527 ft | 143 kts | 173° |
| 2026-05-08 05:19 | -37.66181 | 144.83656 | 422 ft | 118 kts | 172° |
| 2026-05-08 05:20 | -37.66878 | 144.83782 | 391 ft | 79 kts | 171° |
| 2026-05-08 05:20 | -37.67270 | 144.83854 | 377 ft | 45 kts | 172° |
| 2026-05-08 05:20 | -37.67550 | 144.83904 | 371 ft | 38 kts | 172° |
| 2026-05-08 05:20 | -37.67793 | 144.83955 | 360 ft | 25 kts | 168° |
| 2026-05-08 05:21 | -37.67873 | 144.84027 | 364 ft | 8 kts | 120° |
| 2026-05-08 05:21 | -37.67878 | 144.84067 | 363 ft | 0 kts | 80° |
| 2026-05-08 05:22 | -37.67873 | 144.84107 | 360 ft | 15 kts | 80° |
| 2026-05-08 05:22 | -37.67858 | 144.84231 | 360 ft | 4 kts | 83° |
| 2026-05-08 05:22 | -37.67855 | 144.84266 | 365 ft | 4 kts | 83° |
| 2026-05-08 05:22 | -37.67851 | 144.84304 | 361 ft | 6 kts | 82° |
| 2026-05-08 05:23 | -37.67843 | 144.84375 | 365 ft | 11 kts | 81° |
| 2026-05-08 05:23 | -37.67831 | 144.84474 | 365 ft | 11 kts | 82° |
| 2026-05-08 05:23 | -37.67815 | 144.84570 | 367 ft | 11 kts | 62° |
| 2026-05-08 05:23 | -37.67757 | 144.84589 | 373 ft | 9 kts | 352° |
| 2026-05-08 05:24 | -37.67698 | 144.84578 | 371 ft | 8 kts | 352° |
| 2026-05-08 05:24 | -37.67645 | 144.84568 | 373 ft | 8 kts | 352° |
| 2026-05-08 05:24 | -37.67591 | 144.84557 | 375 ft | 8 kts | 351° |
| 2026-05-08 05:24 | -37.67537 | 144.84547 | 377 ft | 8 kts | 352° |
| 2026-05-08 05:25 | -37.67484 | 144.84550 | 379 ft | 7 kts | 19° |
| 2026-05-08 05:25 | -37.67454 | 144.84592 | 380 ft | 6 kts | 70° |
| 2026-05-08 05:25 | -37.67446 | 144.84643 | 381 ft | 6 kts | 80° |
| 2026-05-08 05:25 | -37.67439 | 144.84697 | 382 ft | 6 kts | 81° |
| 2026-05-08 05:26 | -37.67434 | 144.84751 | 382 ft | 5 kts | 90° |
| 2026-05-08 05:26 | -37.67469 | 144.84779 | 381 ft | 8 kts | 167° |
| 2026-05-08 05:26 | -37.67492 | 144.84784 | 380 ft | 4 kts | 170° |
| 2026-05-08 05:26 | -37.67516 | 144.84788 | 380 ft | 3 kts | 171° |
| 2026-05-08 05:27 | -37.67529 | 144.84791 | 379 ft | 0 kts | 172° |